Strattanville, Pennsylvania
Current Conditions -  °F | °C
As of 2:53 PM on Monday 22 Dec 2014 (Local Time) from KDUJ Reporting Station
Scattered Clouds Scattered Clouds  
Wind Chill: 25°   Ceiling: Unl
Heat Index: 34°   Visibility: 7mi
Dew Point: 26°   Wind: 14mph
Humidity: 73%   Direction: 120°ESE
Pressure: 30.04"   Gusts: 21mph
Location:  41.2°N, 79.33°W
Report Text: KDUJ 221953Z AUTO 12012G18KT 7SM SCT034 01/M03 A3004 RMK AO2 SLP193 T00111033
Loading
Personal Weather Stations






























Interactive Weather Map New forecast layout! Learn more

10-Day Weather Forecast

Advertisements
Track Severe Weather on mobile